Time;durP1;ratioP1;P1;durP2;ratioP2;P2;SDS_P1;SDS_P2;PMS_P1;PMS_P2;Temp;Humidity;BMP_temperature;BMP_pressure;BME280_temperature;BME280_humidity;BME280_pressure;Samples;Min_cycle;Max_cycle;Signal;HPM_P1;HPM_P2
2022/03/26 00:00:28;;;;;;;17.40;10.07;;;9.80;60.50;;;;;;5035248;28;20103;-57
2022/03/26 00:02:54;;;;;;;15.27;9.48;;;9.70;60.50;;;;;;5017819;28;20029;-57
2022/03/26 00:05:20;;;;;;;17.70;9.32;;;9.70;60.60;;;;;;5017734;28;20021;-57
2022/03/26 00:07:46;;;;;;;12.88;8.77;;;9.60;60.60;;;;;;5017414;28;20029;-57
2022/03/26 00:10:12;;;;;;;14.40;9.00;;;9.60;60.80;;;;;;5035114;28;20029;-57
2022/03/26 00:12:39;;;;;;;14.32;9.18;;;9.60;61.10;;;;;;5035232;28;20523;-57
2022/03/26 00:15:05;;;;;;;13.43;9.05;;;9.50;61.20;;;;;;5033751;28;20112;-58
2022/03/26 00:17:32;;;;;;;15.38;9.65;;;9.40;61.30;;;;;;5017622;28;20100;-57
2022/03/26 00:19:57;;;;;;;13.57;9.10;;;9.40;61.50;;;;;;5034951;28;20025;-57
2022/03/26 00:22:23;;;;;;;14.32;9.65;;;9.40;61.60;;;;;;5034901;28;20082;-57
2022/03/26 00:24:49;;;;;;;14.38;9.25;;;9.30;61.70;;;;;;5034858;28;20036;-57
2022/03/26 00:27:15;;;;;;;15.85;10.20;;;9.30;61.90;;;;;;5034864;28;20026;-57
2022/03/26 00:29:41;;;;;;;16.02;9.57;;;9.20;62.10;;;;;;5034885;28;20470;-57
2022/03/26 00:32:07;;;;;;;15.88;8.85;;;9.20;62.30;;;;;;5034718;28;20037;-58
2022/03/26 00:34:33;;;;;;;14.82;9.15;;;9.20;62.30;;;;;;5034692;28;20040;-57
2022/03/26 00:36:59;;;;;;;15.18;9.32;;;9.10;62.30;;;;;;5034751;28;20371;-58
2022/03/26 00:39:25;;;;;;;13.05;9.02;;;9.10;62.40;;;;;;5034610;28;20031;-57
2022/03/26 00:41:51;;;;;;;15.93;10.10;;;9.10;62.40;;;;;;5034584;28;20120;-58
2022/03/26 00:44:17;;;;;;;16.70;10.38;;;9.10;62.60;;;;;;5016771;28;20021;-57
2022/03/26 00:46:45;;;;;;;19.42;10.48;;;9.00;62.90;;;;;;5034561;28;20517;-58
2022/03/26 00:49:11;;;;;;;18.27;11.35;;;9.00;63.10;;;;;;5016699;28;20021;-57
2022/03/26 00:51:37;;;;;;;19.85;11.38;;;8.90;63.80;;;;;;5034736;28;20112;-58
2022/03/26 00:54:02;;;;;;;16.88;11.43;;;8.90;64.20;;;;;;5034357;28;20132;-58
2022/03/26 00:56:28;;;;;;;17.58;10.65;;;8.90;64.20;;;;;;5034409;28;20541;-58
2022/03/26 00:58:53;;;;;;;15.63;9.60;;;8.90;64.00;;;;;;5034209;28;20178;-58
2022/03/26 01:01:19;;;;;;;14.48;8.98;;;8.90;63.90;;;;;;5034213;28;20343;-58
2022/03/26 01:03:44;;;;;;;17.85;11.65;;;8.80;63.90;;;;;;5034162;28;20108;-58
2022/03/26 01:06:10;;;;;;;18.20;10.88;;;8.80;64.50;;;;;;5034068;28;20053;-57
2022/03/26 01:08:35;;;;;;;17.45;10.90;;;8.70;65.30;;;;;;5033792;28;20021;-58
2022/03/26 01:11:01;;;;;;;16.65;10.63;;;8.70;64.50;;;;;;5032860;28;20389;-57
2022/03/26 01:13:27;;;;;;;18.35;11.05;;;8.70;64.70;;;;;;5016312;28;20029;-57
2022/03/26 01:15:53;;;;;;;15.55;10.45;;;8.70;64.90;;;;;;5034031;28;20026;-57
2022/03/26 01:18:19;;;;;;;17.35;10.82;;;8.70;64.90;;;;;;5033925;28;20040;-58
2022/03/26 01:20:44;;;;;;;19.23;11.82;;;8.60;65.10;;;;;;5033705;28;20029;-58
2022/03/26 01:23:10;;;;;;;18.80;11.85;;;8.60;65.40;;;;;;5033893;28;20374;-57
2022/03/26 01:25:36;;;;;;;24.50;12.70;;;8.60;65.50;;;;;;5033685;28;20030;-57
2022/03/26 01:28:02;;;;;;;24.08;13.57;;;8.50;66.00;;;;;;5033860;28;20041;-57
2022/03/26 01:30:28;;;;;;;18.92;11.23;;;8.50;66.00;;;;;;5033908;28;20030;-57
2022/03/26 01:32:55;;;;;;;21.88;11.90;;;8.50;66.00;;;;;;5033675;28;20421;-57
2022/03/26 01:35:21;;;;;;;20.10;12.68;;;8.50;66.40;;;;;;5033560;28;20384;-57
2022/03/26 01:37:47;;;;;;;18.60;10.23;;;8.50;66.30;;;;;;5015670;28;20508;-57
2022/03/26 01:40:13;;;;;;;17.83;10.80;;;8.40;66.20;;;;;;5033520;28;20061;-57
2022/03/26 01:42:38;;;;;;;15.60;9.38;;;8.40;66.10;;;;;;5033561;28;20025;-58
2022/03/26 01:45:04;;;;;;;16.30;9.43;;;8.30;66.10;;;;;;5015533;28;20027;-57
2022/03/26 01:47:30;;;;;;;15.73;9.55;;;8.30;66.10;;;;;;5033372;28;20076;-57
2022/03/26 01:49:55;;;;;;;17.88;10.82;;;8.20;66.20;;;;;;5033378;28;20022;-57
2022/03/26 01:52:21;;;;;;;17.20;9.75;;;8.20;66.30;;;;;;5031914;28;20041;-57
2022/03/26 01:54:46;;;;;;;15.23;9.65;;;8.10;66.30;;;;;;5033069;28;20039;-57
2022/03/26 01:57:12;;;;;;;17.55;9.98;;;8.10;66.40;;;;;;5033243;28;20075;-57
2022/03/26 01:59:39;;;;;;;14.18;9.13;;;8.10;66.50;;;;;;5015376;28;20568;-57
2022/03/26 02:02:06;;;;;;;15.63;8.98;;;8.10;66.60;;;;;;5033020;28;20489;-58
2022/03/26 02:04:34;;;;;;;15.60;9.13;;;8.00;66.70;;;;;;5033021;28;20382;-58
2022/03/26 02:07:02;;;;;;;18.30;9.93;;;7.90;66.80;;;;;;5032909;28;20024;-57
2022/03/26 02:09:33;;;;;;;17.50;10.23;;;7.90;66.90;;;;;;5033122;28;20025;-58
2022/03/26 02:11:58;;;;;;;15.52;9.25;;;7.90;67.00;;;;;;5032952;28;20044;-57
2022/03/26 02:14:24;;;;;;;17.23;10.13;;;7.90;67.00;;;;;;5032869;28;20481;-59
2022/03/26 02:16:50;;;;;;;16.15;9.73;;;7.80;67.00;;;;;;4998783;28;20029;-57
2022/03/26 02:19:16;;;;;;;15.32;10.10;;;7.80;67.10;;;;;;5032547;28;20083;-57
2022/03/26 02:21:42;;;;;;;15.90;9.63;;;7.70;67.30;;;;;;5032217;28;20025;-58
2022/03/26 02:24:08;;;;;;;15.30;9.85;;;7.60;67.40;;;;;;5032673;28;20024;-57
2022/03/26 02:26:35;;;;;;;16.67;9.85;;;7.60;67.70;;;;;;5032722;28;20100;-57
2022/03/26 02:29:07;;;;;;;14.10;9.25;;;7.60;67.80;;;;;;5032684;28;20091;-57
2022/03/26 02:31:33;;;;;;;15.85;9.30;;;7.50;67.90;;;;;;5032528;28;20116;-57
2022/03/26 02:33:59;;;;;;;13.00;8.57;;;7.50;68.00;;;;;;5032544;28;20029;-57
2022/03/26 02:36:24;;;;;;;15.93;9.70;;;7.50;68.10;;;;;;5032647;28;20117;-57
2022/03/26 02:38:50;;;;;;;17.63;10.18;;;7.50;68.20;;;;;;5030674;28;20033;-57
2022/03/26 02:41:15;;;;;;;19.75;10.80;;;7.50;68.20;;;;;;5031676;28;20060;-57
2022/03/26 02:43:41;;;;;;;16.10;10.75;;;7.40;68.30;;;;;;5031869;28;20481;-57
2022/03/26 02:46:06;;;;;;;17.33;10.30;;;7.40;68.30;;;;;;5014410;28;20057;-57
2022/03/26 02:48:34;;;;;;;17.85;10.45;;;7.40;68.30;;;;;;5032287;28;20048;-57
2022/03/26 02:50:59;;;;;;;18.48;10.50;;;7.30;68.40;;;;;;5032193;28;20022;-57
2022/03/26 02:53:25;;;;;;;16.80;11.45;;;7.30;68.40;;;;;;5032515;28;20105;-58
2022/03/26 02:55:52;;;;;;;17.95;10.07;;;7.30;68.30;;;;;;5032234;28;20473;-57
2022/03/26 02:58:18;;;;;;;15.50;9.48;;;7.20;68.60;;;;;;5032150;28;20429;-57
2022/03/26 03:00:44;;;;;;;14.68;9.68;;;7.20;68.70;;;;;;5031961;28;20080;-57
2022/03/26 03:03:10;;;;;;;17.40;9.90;;;7.20;68.90;;;;;;5012543;28;20105;-57
2022/03/26 03:05:35;;;;;;;21.05;11.27;;;7.10;68.90;;;;;;4994931;28;20037;-57
2022/03/26 03:08:02;;;;;;;18.55;11.23;;;7.10;69.20;;;;;;5012436;28;20093;-57
2022/03/26 03:10:28;;;;;;;19.75;11.57;;;7.10;70.10;;;;;;5012309;28;20052;-57
2022/03/26 03:12:54;;;;;;;21.75;12.25;;;7.00;69.50;;;;;;5012414;28;20037;-57
2022/03/26 03:15:19;;;;;;;20.38;11.88;;;7.00;69.70;;;;;;5012305;28;20022;-57
2022/03/26 03:17:47;;;;;;;16.92;10.55;;;7.00;69.80;;;;;;5012062;28;20495;-57
2022/03/26 03:20:14;;;;;;;17.95;10.70;;;7.00;69.90;;;;;;5012191;28;20037;-57
2022/03/26 03:22:40;;;;;;;17.25;10.88;;;6.90;69.80;;;;;;5012233;28;20064;-57
2022/03/26 03:25:07;;;;;;;17.77;10.60;;;6.90;69.80;;;;;;5012024;28;20026;-57
2022/03/26 03:27:34;;;;;;;20.52;12.45;;;6.90;70.50;;;;;;5012143;28;20048;-57
2022/03/26 03:29:59;;;;;;;18.73;11.30;;;6.90;70.00;;;;;;5012104;28;20026;-57
2022/03/26 03:32:26;;;;;;;18.50;11.07;;;6.90;70.00;;;;;;4981196;28;20545;-57
2022/03/26 03:34:51;;;;;;;17.17;10.13;;;6.90;70.10;;;;;;5016078;28;20425;-57
2022/03/26 03:37:18;;;;;;;17.65;10.20;;;6.80;70.10;;;;;;5015998;28;20030;-57
2022/03/26 03:39:43;;;;;;;15.77;9.23;;;6.80;70.20;;;;;;5016003;28;20034;-57
2022/03/26 03:42:09;;;;;;;18.15;10.25;;;6.80;70.30;;;;;;5015808;28;20084;-57
2022/03/26 03:44:35;;;;;;;18.42;10.23;;;6.70;70.30;;;;;;5017906;28;20018;-57
2022/03/26 03:47:00;;;;;;;16.15;10.88;;;6.70;70.50;;;;;;5035959;28;20037;-57
2022/03/26 03:49:31;;;;;;;17.60;11.10;;;6.70;70.70;;;;;;5035714;28;20026;-57
2022/03/26 03:52:00;;;;;;;18.00;9.82;;;6.60;70.70;;;;;;5035608;28;20025;-58
2022/03/26 03:54:25;;;;;;;14.57;10.10;;;6.60;70.70;;;;;;5035391;28;20029;-58
2022/03/26 03:56:51;;;;;;;16.17;10.02;;;6.60;70.80;;;;;;5035951;28;20086;-57
2022/03/26 03:59:17;;;;;;;18.42;11.25;;;6.60;70.80;;;;;;5035132;28;20501;-57
2022/03/26 04:01:43;;;;;;;16.75;10.95;;;6.50;70.90;;;;;;5035387;28;20563;-57
2022/03/26 04:04:09;;;;;;;18.27;10.95;;;6.50;71.10;;;;;;5035244;28;20025;-57
2022/03/26 04:06:35;;;;;;;18.27;10.73;;;6.50;71.20;;;;;;5035368;28;20076;-58
2022/03/26 04:09:00;;;;;;;20.48;12.27;;;6.50;71.40;;;;;;5035250;28;20048;-57
2022/03/26 04:11:26;;;;;;;21.58;11.82;;;6.40;71.60;;;;;;5035116;28;20115;-57
2022/03/26 04:13:53;;;;;;;17.67;10.43;;;6.40;71.70;;;;;;5035119;28;20032;-57
2022/03/26 04:16:19;;;;;;;18.75;10.95;;;6.40;71.70;;;;;;5035059;28;20497;-57
2022/03/26 04:18:45;;;;;;;20.20;11.00;;;6.40;71.90;;;;;;5035080;28;20037;-57
2022/03/26 04:21:10;;;;;;;17.67;11.00;;;6.40;71.90;;;;;;5034890;28;20477;-57
2022/03/26 04:23:36;;;;;;;15.55;10.13;;;6.30;71.80;;;;;;5035113;28;20033;-57
2022/03/26 04:26:01;;;;;;;16.58;10.85;;;6.30;71.80;;;;;;5034965;28;20029;-57
2022/03/26 04:28:27;;;;;;;18.65;11.15;;;6.10;72.00;;;;;;5017050;28;20033;-57
2022/03/26 04:30:53;;;;;;;18.20;11.52;;;6.10;72.30;;;;;;5034938;28;20053;-58
2022/03/26 04:33:18;;;;;;;18.63;11.15;;;6.10;72.50;;;;;;5034812;28;20033;-57
2022/03/26 04:35:44;;;;;;;17.65;10.35;;;6.00;72.50;;;;;;5034842;28;20083;-57
2022/03/26 04:38:09;;;;;;;18.08;10.60;;;6.00;72.60;;;;;;5034678;28;20432;-57
2022/03/26 04:40:35;;;;;;;16.30;10.50;;;6.00;72.60;;;;;;5033452;28;20041;-57
2022/03/26 04:43:01;;;;;;;16.30;10.05;;;6.00;72.70;;;;;;5032547;28;20029;-57
2022/03/26 04:45:26;;;;;;;17.52;10.85;;;6.00;72.80;;;;;;5033344;28;20021;-58
2022/03/26 04:47:52;;;;;;;16.85;10.48;;;5.90;72.70;;;;;;5034603;28;20025;-57
2022/03/26 04:50:17;;;;;;;19.45;11.43;;;5.90;72.80;;;;;;5033186;28;20042;-57
2022/03/26 04:52:43;;;;;;;19.50;12.48;;;5.90;72.90;;;;;;5034645;28;20545;-57
2022/03/26 04:55:10;;;;;;;23.30;11.27;;;5.90;73.00;;;;;;5016709;28;20028;-57
2022/03/26 04:57:44;;;;;;;17.77;10.95;;;5.80;73.20;;;;;;5034768;28;20551;-57
2022/03/26 05:00:12;;;;;;;21.02;11.65;;;5.80;73.60;;;;;;5034140;28;20493;-58
2022/03/26 05:02:39;;;;;;;18.40;10.88;;;5.70;73.70;;;;;;5034365;28;20036;-58
2022/03/26 05:05:05;;;;;;;18.27;11.32;;;5.70;73.70;;;;;;5034137;28;20026;-58
2022/03/26 05:07:46;;;;;;;19.17;12.32;;;5.70;73.80;;;;;;5034136;28;20029;-58
2022/03/26 05:10:15;;;;;;;18.02;11.38;;;5.60;73.90;;;;;;5016228;28;20029;-58
2022/03/26 05:12:45;;;;;;;19.10;11.40;;;5.60;74.10;;;;;;5034278;28;20444;-58
2022/03/26 05:15:12;;;;;;;18.42;10.63;;;5.50;74.20;;;;;;5016272;28;20044;-58
2022/03/26 05:17:38;;;;;;;16.00;10.30;;;5.50;74.20;;;;;;5034013;28;20044;-59
2022/03/26 05:20:05;;;;;;;21.25;11.00;;;5.50;74.30;;;;;;5033774;28;20485;-58
2022/03/26 05:22:31;;;;;;;18.55;11.40;;;5.50;74.40;;;;;;5033845;28;20108;-58
2022/03/26 05:24:57;;;;;;;19.02;11.90;;;5.50;74.40;;;;;;5033487;28;20100;-59
2022/03/26 05:27:22;;;;;;;18.13;11.27;;;5.50;74.50;;;;;;5033322;28;20079;-58
2022/03/26 05:29:49;;;;;;;18.40;11.48;;;5.50;74.50;;;;;;5033800;28;20116;-58
2022/03/26 05:32:15;;;;;;;20.80;11.63;;;5.40;74.50;;;;;;5034038;28;20029;-58
2022/03/26 05:34:41;;;;;;;17.58;10.52;;;5.40;74.60;;;;;;5033784;28;20028;-58
2022/03/26 05:37:07;;;;;;;18.85;11.65;;;5.40;74.70;;;;;;5033393;28;20017;-58
2022/03/26 05:39:32;;;;;;;19.98;11.20;;;5.40;74.90;;;;;;5033677;28;20026;-59
2022/03/26 05:41:58;;;;;;;22.58;12.43;;;5.40;74.90;;;;;;5033499;28;20437;-58
2022/03/26 05:44:24;;;;;;;20.58;13.00;;;5.40;75.10;;;;;;5033598;28;20030;-60
2022/03/26 05:46:49;;;;;;;21.20;11.60;;;5.30;75.10;;;;;;5033572;28;20068;-58
2022/03/26 05:49:16;;;;;;;22.20;12.55;;;5.30;75.20;;;;;;5033289;28;20473;-58
2022/03/26 05:51:42;;;;;;;21.73;11.98;;;5.30;75.20;;;;;;5033391;28;20017;-58
2022/03/26 05:54:07;;;;;;;23.75;13.93;;;5.30;75.50;;;;;;5014494;28;20208;-58
2022/03/26 05:56:36;;;;;;;23.10;12.85;;;5.30;75.70;;;;;;5014791;28;20350;-58
2022/03/26 05:59:03;;;;;;;24.20;12.77;;;5.30;75.70;;;;;;5031362;28;20041;-58
2022/03/26 06:01:30;;;;;;;23.33;13.70;;;5.30;75.70;;;;;;5033125;28;20381;-58
2022/03/26 06:03:55;;;;;;;20.77;12.57;;;5.30;75.80;;;;;;5033210;28;20489;-59
2022/03/26 06:06:21;;;;;;;18.25;12.27;;;5.30;75.90;;;;;;5032913;28;20087;-58
2022/03/26 06:08:46;;;;;;;25.08;13.40;;;5.40;76.00;;;;;;5032954;28;20017;-58
2022/03/26 06:11:12;;;;;;;23.40;13.07;;;5.30;76.10;;;;;;5032962;28;20025;-58
2022/03/26 06:13:38;;;;;;;22.30;12.85;;;5.30;76.10;;;;;;5033009;28;20025;-58
2022/03/26 06:16:13;;;;;;;23.83;13.02;;;5.30;76.30;;;;;;5069338;28;20445;-58
2022/03/26 06:18:38;;;;;;;19.65;12.55;;;5.30;76.30;;;;;;5069439;28;20021;-58
2022/03/26 06:21:05;;;;;;;23.45;13.18;;;5.40;76.40;;;;;;5069239;28;20537;-58
2022/03/26 06:23:31;;;;;;;20.58;13.18;;;5.40;76.60;;;;;;5068319;28;20025;-58
2022/03/26 06:25:57;;;;;;;23.52;13.63;;;5.40;76.70;;;;;;5069305;28;20036;-58
2022/03/26 06:28:23;;;;;;;23.05;12.40;;;5.50;76.80;;;;;;5069185;28;20107;-58
2022/03/26 06:30:49;;;;;;;21.17;13.25;;;5.50;76.80;;;;;;5067920;28;20028;-58
2022/03/26 06:33:16;;;;;;;22.90;12.43;;;5.60;76.90;;;;;;5069061;28;20089;-58
2022/03/26 06:35:42;;;;;;;21.92;13.48;;;5.60;77.00;;;;;;5069035;28;20029;-58
2022/03/26 06:38:08;;;;;;;21.08;12.48;;;5.60;77.10;;;;;;5068839;28;20353;-58
2022/03/26 06:40:33;;;;;;;19.85;12.00;;;5.70;77.20;;;;;;5069011;28;20035;-58
2022/03/26 06:42:59;;;;;;;25.23;13.30;;;5.70;77.30;;;;;;5069084;28;20564;-58
2022/03/26 06:45:25;;;;;;;20.70;12.57;;;5.80;77.40;;;;;;5068811;28;20035;-58
2022/03/26 06:47:50;;;;;;;24.58;13.82;;;5.80;77.50;;;;;;5068801;28;20373;-58
2022/03/26 06:50:16;;;;;;;26.30;14.52;;;5.90;77.80;;;;;;5068742;28;20879;-58
2022/03/26 06:52:41;;;;;;;27.88;15.45;;;5.90;77.90;;;;;;5068874;28;20025;-58
2022/03/26 06:55:08;;;;;;;27.38;15.65;;;6.00;78.00;;;;;;5067106;28;20468;-58
2022/03/26 06:57:34;;;;;;;26.17;15.88;;;6.10;78.20;;;;;;5068628;28;20135;-58
2022/03/26 06:59:59;;;;;;;28.67;16.05;;;6.10;78.40;;;;;;5068547;28;20516;-59
2022/03/26 07:02:25;;;;;;;29.63;16.98;;;6.20;78.50;;;;;;5068439;28;20020;-58
2022/03/26 07:04:50;;;;;;;26.00;16.25;;;6.20;78.50;;;;;;5068502;28;20035;-58
2022/03/26 07:07:16;;;;;;;26.45;16.25;;;6.30;78.60;;;;;;5068177;28;20029;-58
2022/03/26 07:09:41;;;;;;;28.58;17.65;;;6.40;78.70;;;;;;5067762;28;20028;-58
2022/03/26 07:12:07;;;;;;;31.83;18.55;;;6.40;78.60;;;;;;5061202;28;20021;-59
2022/03/26 07:14:33;;;;;;;30.65;19.05;;;6.50;78.70;;;;;;5058952;28;20485;-58
2022/03/26 07:16:59;;;;;;;32.65;18.50;;;6.70;78.90;;;;;;5053051;28;20108;-59
2022/03/26 07:19:24;;;;;;;32.45;18.35;;;6.70;78.90;;;;;;5050189;28;20134;-58
2022/03/26 07:21:50;;;;;;;34.58;20.33;;;6.80;78.90;;;;;;5066967;28;20524;-58
2022/03/26 07:24:15;;;;;;;32.10;18.40;;;6.90;79.10;;;;;;5064386;28;20021;-58
2022/03/26 07:26:41;;;;;;;35.30;19.25;;;7.00;79.30;;;;;;5056138;28;20029;-58
2022/03/26 07:29:06;;;;;;;35.50;21.48;;;7.10;79.30;;;;;;5049147;28;20075;-58
2022/03/26 07:31:32;;;;;;;40.42;21.58;;;7.20;79.40;;;;;;5047429;28;20021;-58
2022/03/26 07:33:57;;;;;;;35.40;21.50;;;7.30;79.50;;;;;;5047233;28;20028;-59
2022/03/26 07:36:23;;;;;;;44.50;24.17;;;7.40;79.60;;;;;;5052861;28;20025;-58
2022/03/26 07:38:48;;;;;;;43.80;26.17;;;7.50;79.80;;;;;;5046689;28;20482;-58
2022/03/26 07:41:14;;;;;;;47.10;25.58;;;7.70;79.90;;;;;;5046414;28;20017;-58
2022/03/26 07:43:40;;;;;;;41.95;24.90;;;7.70;80.10;;;;;;5048906;28;20096;-58
2022/03/26 07:46:05;;;;;;;41.65;24.17;;;7.90;80.20;;;;;;5050991;28;20037;-58
2022/03/26 07:48:31;;;;;;;43.72;26.65;;;8.00;80.20;;;;;;5038595;28;20491;-59
2022/03/26 07:50:56;;;;;;;47.50;26.85;;;8.10;80.30;;;;;;5046471;28;20036;-58
2022/03/26 07:53:22;;;;;;;50.95;28.90;;;8.20;80.50;;;;;;5044891;28;20023;-58
2022/03/26 07:55:48;;;;;;;46.55;28.63;;;8.30;80.80;;;;;;5047630;28;20385;-58
2022/03/26 07:58:14;;;;;;;48.85;28.20;;;8.40;81.00;;;;;;5046291;28;20477;-58
2022/03/26 08:00:39;;;;;;;53.63;31.33;;;8.50;81.00;;;;;;5046700;28;20075;-58
2022/03/26 08:03:05;;;;;;;52.03;30.10;;;8.60;81.20;;;;;;5048634;28;20349;-58
2022/03/26 08:05:31;;;;;;;45.35;26.92;;;8.70;81.10;;;;;;5043897;28;20025;-59
2022/03/26 08:07:56;;;;;;;41.47;23.45;;;8.80;81.00;;;;;;5058666;28;20051;-58
2022/03/26 08:10:22;;;;;;;44.10;26.45;;;8.90;81.00;;;;;;5073603;28;20036;-59
2022/03/26 08:12:47;;;;;;;39.08;23.27;;;9.00;81.50;;;;;;5059862;28;20472;-59
2022/03/26 08:15:13;;;;;;;35.58;21.80;;;9.10;80.60;;;;;;5048608;28;20056;-59
2022/03/26 08:17:39;;;;;;;48.97;25.58;;;9.20;80.30;;;;;;5043855;28;20096;-58
2022/03/26 08:20:05;;;;;;;36.65;23.50;;;9.30;80.30;;;;;;5041694;28;20480;-59
2022/03/26 08:22:30;;;;;;;44.80;26.90;;;9.40;80.20;;;;;;5049731;28;20028;-59
2022/03/26 08:24:56;;;;;;;52.10;29.65;;;9.60;80.10;;;;;;5047655;28;20392;-59
2022/03/26 08:27:23;;;;;;;51.63;30.42;;;9.70;80.00;;;;;;5046165;28;20025;-58
2022/03/26 08:29:50;;;;;;;50.92;29.80;;;9.90;79.80;;;;;;5051404;28;20020;-59
2022/03/26 08:32:16;;;;;;;47.05;26.10;;;10.00;79.60;;;;;;5042939;28;20060;-59
2022/03/26 08:34:42;;;;;;;50.25;28.77;;;10.10;79.30;;;;;;5049698;28;20053;-59
2022/03/26 08:37:07;;;;;;;48.85;29.40;;;10.20;79.20;;;;;;5046837;28;20017;-58
2022/03/26 08:39:33;;;;;;;42.92;25.85;;;10.40;78.90;;;;;;5052219;28;20536;-58
2022/03/26 08:41:58;;;;;;;47.15;26.30;;;10.40;78.30;;;;;;5053536;28;20025;-58
2022/03/26 08:44:24;;;;;;;47.10;27.63;;;10.60;77.90;;;;;;5052494;28;20036;-58
2022/03/26 08:46:49;;;;;;;45.17;26.35;;;10.70;77.30;;;;;;5048060;28;20485;-58
2022/03/26 08:49:15;;;;;;;42.10;25.58;;;10.80;76.70;;;;;;5033795;28;20029;-58
2022/03/26 08:51:41;;;;;;;46.65;27.70;;;10.90;76.30;;;;;;5048761;28;20056;-58
2022/03/26 08:54:07;;;;;;;44.08;27.05;;;11.00;76.00;;;;;;5053171;28;20037;-58
2022/03/26 08:56:32;;;;;;;44.97;23.98;;;11.10;75.80;;;;;;5053186;28;20021;-58
2022/03/26 08:58:58;;;;;;;41.95;24.55;;;11.30;75.60;;;;;;5053075;28;20028;-58
2022/03/26 09:01:24;;;;;;;42.55;24.80;;;11.40;75.20;;;;;;5052553;28;20151;-58
2022/03/26 09:03:50;;;;;;;44.55;24.85;;;11.40;74.60;;;;;;5050187;28;20021;-58
2022/03/26 09:06:16;;;;;;;36.38;21.77;;;11.50;74.20;;;;;;5051726;28;20021;-58
2022/03/26 09:08:42;;;;;;;35.22;22.15;;;11.70;74.00;;;;;;5052901;28;20047;-58
2022/03/26 09:11:07;;;;;;;39.53;23.83;;;11.80;73.90;;;;;;5051736;28;20017;-58
2022/03/26 09:13:33;;;;;;;43.10;24.40;;;11.90;73.60;;;;;;5052569;28;20029;-58
2022/03/26 09:15:59;;;;;;;37.33;23.92;;;12.10;73.20;;;;;;5052320;28;20147;-58
2022/03/26 09:18:26;;;;;;;38.58;22.00;;;12.20;72.80;;;;;;5052539;28;20566;-59
2022/03/26 09:20:52;;;;;;;38.05;23.60;;;12.30;72.30;;;;;;5052580;28;20033;-58
2022/03/26 09:23:17;;;;;;;35.55;22.35;;;12.40;71.70;;;;;;5052510;28;20496;-59
2022/03/26 09:25:43;;;;;;;38.40;23.42;;;12.50;71.30;;;;;;5052467;28;20040;-58
2022/03/26 09:28:09;;;;;;;35.08;21.73;;;12.60;70.60;;;;;;5052408;28;20021;-58
2022/03/26 09:30:34;;;;;;;31.35;19.85;;;12.80;70.40;;;;;;5050991;28;20621;-58
2022/03/26 09:33:00;;;;;;;35.58;23.05;;;12.90;70.10;;;;;;5050984;28;20021;-58
2022/03/26 09:35:26;;;;;;;33.92;20.85;;;13.00;69.50;;;;;;5046870;28;20029;-58
2022/03/26 09:37:52;;;;;;;30.17;19.20;;;13.10;69.10;;;;;;5047234;28;20025;-59
2022/03/26 09:40:20;;;;;;;26.15;16.70;;;13.20;68.90;;;;;;5032525;28;20049;-59
2022/03/26 09:42:46;;;;;;;26.40;17.42;;;13.40;68.80;;;;;;5032328;28;20040;-58
2022/03/26 09:45:12;;;;;;;29.38;17.77;;;13.50;68.00;;;;;;5032287;28;20025;-59
2022/03/26 09:47:38;;;;;;;27.58;17.20;;;13.60;67.60;;;;;;5032422;28;20033;-58
2022/03/26 09:50:06;;;;;;;28.35;17.13;;;13.70;67.40;;;;;;5030423;28;20037;-58
2022/03/26 09:52:33;;;;;;;25.20;16.93;;;13.90;66.90;;;;;;5044483;28;20033;-59
2022/03/26 09:54:59;;;;;;;28.73;17.40;;;14.00;66.30;;;;;;5050346;28;20036;-58
2022/03/26 09:57:25;;;;;;;24.23;15.20;;;14.20;66.00;;;;;;5048469;28;20065;-58
2022/03/26 09:59:50;;;;;;;25.25;15.38;;;14.30;65.70;;;;;;5049874;28;20040;-58
2022/03/26 10:02:16;;;;;;;21.90;13.77;;;14.50;65.40;;;;;;5050341;28;20048;-58
2022/03/26 10:04:44;;;;;;;20.10;13.18;;;14.70;65.20;;;;;;5048196;28;20512;-58
2022/03/26 10:07:10;;;;;;;21.40;13.85;;;14.90;65.00;;;;;;5048817;28;20075;-59
2022/03/26 10:09:40;;;;;;;17.60;12.23;;;15.00;64.70;;;;;;5050066;28;20132;-58
2022/03/26 10:12:17;;;;;;;20.60;12.77;;;15.30;64.30;;;;;;5029363;28;20036;-58
2022/03/26 10:14:48;;;;;;;24.20;14.40;;;15.40;64.00;;;;;;5050032;28;20037;-58
2022/03/26 10:17:17;;;;;;;24.33;16.00;;;15.70;63.50;;;;;;5050149;28;20488;-59
2022/03/26 10:19:53;;;;;;;30.23;16.73;;;15.80;62.90;;;;;;5041819;28;20472;-58
2022/03/26 10:22:35;;;;;;;24.05;15.27;;;16.00;62.40;;;;;;5047023;28;20032;-58
2022/03/26 10:25:06;;;;;;;26.48;17.88;;;16.30;62.20;;;;;;5051817;28;20031;-58
2022/03/26 10:27:38;;;;;;;25.45;16.42;;;16.50;61.00;;;;;;5050832;28;20025;-58
2022/03/26 10:30:05;;;;;;;23.40;14.35;;;16.70;60.60;;;;;;5051034;28;20036;-59
2022/03/26 10:32:39;;;;;;;19.25;13.02;;;17.00;60.10;;;;;;5051272;28;20039;-59
2022/03/26 10:35:10;;;;;;;20.05;11.32;;;17.30;60.00;;;;;;5051447;28;20020;-59
2022/03/26 10:37:46;;;;;;;22.70;14.73;;;17.50;59.60;;;;;;5050892;28;20068;-59
2022/03/26 10:40:34;;;;;;;24.17;14.93;;;17.80;58.60;;;;;;5050478;28;20027;-59
2022/03/26 10:43:01;;;;;;;20.67;14.10;;;18.00;57.70;;;;;;5050551;28;20021;-59
2022/03/26 10:45:28;;;;;;;24.27;15.82;;;18.30;57.40;;;;;;5050876;28;20025;-59
2022/03/26 10:47:56;;;;;;;25.58;16.42;;;18.80;56.20;;;;;;5051476;28;20514;-59
2022/03/26 10:50:22;;;;;;;19.35;13.93;;;19.10;54.20;;;;;;5051107;28;20092;-59
2022/03/26 10:52:48;;;;;;;19.27;13.98;;;19.60;54.20;;;;;;5051371;28;20021;-59
2022/03/26 10:55:18;;;;;;;20.75;14.05;;;20.20;53.40;;;;;;5050021;28;20087;-59
2022/03/26 10:57:46;;;;;;;17.20;11.48;;;20.80;52.30;;;;;;5051430;28;20112;-60
2022/03/26 11:00:17;;;;;;;16.27;10.25;;;21.30;52.00;;;;;;5051214;28;20057;-59
2022/03/26 11:02:47;;;;;;;11.40;8.60;;;22.00;52.30;;;;;;5054667;28;20029;-59
2022/03/26 11:05:14;;;;;;;16.05;10.93;;;23.40;51.80;;;;;;5055115;28;20068;-60
2022/03/26 11:07:43;;;;;;;16.38;10.73;;;25.80;46.70;;;;;;5055010;28;20029;-60
2022/03/26 11:10:11;;;;;;;11.65;9.38;;;28.20;44.10;;;;;;5054956;28;20032;-60
2022/03/26 11:12:45;;;;;;;10.48;7.82;;;30.90;41.90;;;;;;5054935;28;20029;-60
2022/03/26 11:15:17;;;;;;;15.38;10.50;;;32.90;38.60;;;;;;5054909;28;20124;-60
2022/03/26 11:18:15;;;;;;;10.48;8.32;;;34.30;35.10;;;;;;5055169;28;20017;-60
2022/03/26 11:21:03;;;;;;;8.10;6.85;;;35.70;34.70;;;;;;5055499;28;20469;-61
2022/03/26 11:23:42;;;;;;;8.68;7.78;;;37.50;33.50;;;;;;5054956;28;20075;-60
2022/03/26 11:26:31;;;;;;;11.25;8.73;;;39.00;32.50;;;;;;5054857;28;20079;-60
2022/03/26 11:29:09;;;;;;;8.35;6.35;;;40.30;30.30;;;;;;5054933;28;20112;-60
2022/03/26 11:31:56;;;;;;;9.18;6.65;;;41.70;29.80;;;;;;5054746;28;20101;-60
2022/03/26 11:34:21;;;;;;;6.40;5.80;;;42.70;29.00;;;;;;5054720;28;20477;-60
2022/03/26 11:36:50;;;;;;;7.10;6.40;;;43.80;28.70;;;;;;5054643;28;20033;-61
2022/03/26 11:39:18;;;;;;;7.18;6.47;;;44.20;27.80;;;;;;5053404;28;20040;-58
2022/03/26 11:41:44;;;;;;;6.30;5.70;;;44.80;27.50;;;;;;5054536;28;20037;-59
2022/03/26 11:44:12;;;;;;;5.72;5.22;;;45.60;27.20;;;;;;5054437;28;20025;-59
2022/03/26 11:52:30;;;;;;;5.32;4.88;;;47.50;25.60;;;;;;5054534;28;20040;-59
2022/03/26 11:55:15;;;;;;;5.93;5.28;;;47.90;25.40;;;;;;5054114;28;20029;-59
2022/03/26 11:57:41;;;;;;;7.85;5.30;;;47.70;25.10;;;;;;5050182;28;20017;-58
2022/03/26 12:00:17;;;;;;;6.38;5.78;;;47.30;24.70;;;;;;5054201;28;20032;-59
2022/03/26 12:02:52;;;;;;;5.53;5.03;;;47.90;25.00;;;;;;5054102;28;20495;-59
2022/03/26 12:08:16;;;;;;;7.10;6.35;;;48.90;24.40;;;;;;5053432;28;20384;-59
2022/03/26 12:10:43;;;;;;;6.45;5.85;;;48.60;23.50;;;;;;5053539;28;20090;-59
2022/03/26 12:13:09;;;;;;;8.43;5.88;;;48.40;24.20;;;;;;5052447;28;20032;-59
2022/03/26 12:15:36;;;;;;;5.10;4.55;;;48.60;23.90;;;;;;5050383;28;20052;-59
2022/03/26 12:18:10;;;;;;;4.70;4.35;;;48.60;23.90;;;;;;5048851;28;20033;-59
2022/03/26 12:20:41;;;;;;;5.20;4.80;;;49.00;23.90;;;;;;5049473;28;20033;-59
2022/03/26 12:23:15;;;;;;;5.40;4.90;;;49.10;23.80;;;;;;5052570;28;20467;-59
2022/03/26 12:25:53;;;;;;;5.72;5.10;;;49.50;23.60;;;;;;5049405;28;20017;-59
2022/03/26 12:28:25;;;;;;;8.40;6.60;;;49.60;23.70;;;;;;5051478;28;20434;-59
2022/03/26 12:30:56;;;;;;;8.35;5.95;;;49.90;23.80;;;;;;5050755;28;20369;-59
2022/03/26 12:33:23;;;;;;;5.28;4.85;;;50.00;23.50;;;;;;5049308;28;20045;-59
2022/03/26 12:35:50;;;;;;;8.23;6.53;;;50.30;23.40;;;;;;5051699;28;20025;-59
2022/03/26 12:38:18;;;;;;;8.85;6.60;;;50.70;23.40;;;;;;5051691;28;20116;-59
2022/03/26 12:40:58;;;;;;;5.80;5.30;;;51.00;23.30;;;;;;5049469;28;20469;-59
2022/03/26 12:43:24;;;;;;;5.78;5.32;;;50.70;23.00;;;;;;5051800;28;20025;-59
2022/03/26 12:45:51;;;;;;;6.97;6.23;;;50.60;23.30;;;;;;5051968;28;20025;-59